CheckWX is a tool to help pilots better visualize weather data.  It is not intended as a substitute for an official pre-flight weather briefing.

14:45:21 UTC

KPIT TAF
Pittsburgh International Airport
Pittsburgh, Pennsylvania, USA
KPIT 291132Z 2912/3018 34004KT P6SM BKN020 TEMPO 2912/2914 OVC035 FM291400 03003KT P6SM BKN045 FM300000 02003KT P6SM BKN250

Jan-29@
12:00 UTC

Jan-29 @ 12:00 UTC

Jan-29@
14:00 UTC

Jan-29 @ 14:00 UTC

KPIT 291132Z 2912/3018 34004KT P6SM BKN020

Expired

Wind
  • 340° at 4 KTS
Cloud Levels
  • Broken at 2,000' AGL

Jan-29@
12:00 UTC

Jan-29 @ 12:00 UTC

Jan-29@
14:00 UTC

Jan-29 @ 14:00 UTC

TEMPO 2912/2914 OVC035

Expired

Cloud Levels
  • Overcast at 3,500' AGL

Jan-29@
14:00 UTC

Jan-29 @ 14:00 UTC

Jan-30@
00:00 UTC

Jan-30 @ 00:00 UTC

FM291400 03003KT P6SM BKN045

From

From Standard forecast or significant change

Wind
  • 030° at 3 KTS
Cloud Levels
  • Broken at 4,500' AGL

Jan-30@
00:00 UTC

Jan-30 @ 00:00 UTC

Jan-30@
18:00 UTC

Jan-30 @ 18:00 UTC

FM300000 02003KT P6SM BKN250

From

From Standard forecast or significant change

Wind
  • 020° at 3 KTS
Cloud Levels
  • Broken at 25,000' AGL